sensor_id;sensor_type;location;lat;lon;timestamp;temperature;humidity
52275;DHT22;38228;50.940;4.024;2023-03-14T00:01:55;11.50;99.90
52275;DHT22;38228;50.940;4.024;2023-03-14T00:04:21;11.50;99.90
52275;DHT22;38228;50.940;4.024;2023-03-14T00:06:46;11.40;99.90
52275;DHT22;38228;50.940;4.024;2023-03-14T00:09:13;11.40;99.90
52275;DHT22;38228;50.940;4.024;2023-03-14T00:11:38;11.40;99.90
52275;DHT22;38228;50.940;4.024;2023-03-14T00:14:04;11.40;99.90
52275;DHT22;38228;50.940;4.024;2023-03-14T00:16:30;11.40;99.90
52275;DHT22;38228;50.940;4.024;2023-03-14T00:18:55;11.40;99.90
52275;DHT22;38228;50.940;4.024;2023-03-14T00:21:21;11.40;99.90
52275;DHT22;38228;50.940;4.024;2023-03-14T00:23:46;11.30;99.90
52275;DHT22;38228;50.940;4.024;2023-03-14T00:26:15;11.30;99.90
52275;DHT22;38228;50.940;4.024;2023-03-14T00:28:41;11.20;99.90
52275;DHT22;38228;50.940;4.024;2023-03-14T00:31:08;11.40;99.90
52275;DHT22;38228;50.940;4.024;2023-03-14T00:33:34;11.40;99.90
52275;DHT22;38228;50.940;4.024;2023-03-14T00:36:01;11.30;99.90
52275;DHT22;38228;50.940;4.024;2023-03-14T00:38:27;11.30;99.90
52275;DHT22;38228;50.940;4.024;2023-03-14T00:40:53;11.30;99.90
52275;DHT22;38228;50.940;4.024;2023-03-14T00:43:19;11.20;99.90
52275;DHT22;38228;50.940;4.024;2023-03-14T00:45:47;11.20;99.90
52275;DHT22;38228;50.940;4.024;2023-03-14T00:48:12;11.10;99.90
52275;DHT22;38228;50.940;4.024;2023-03-14T00:50:38;11.00;99.90
52275;DHT22;38228;50.940;4.024;2023-03-14T00:53:04;11.00;99.90
52275;DHT22;38228;50.940;4.024;2023-03-14T00:55:29;11.00;99.90
52275;DHT22;38228;50.940;4.024;2023-03-14T00:57:55;10.90;99.90
52275;DHT22;38228;50.940;4.024;2023-03-14T01:00:21;10.90;99.90
52275;DHT22;38228;50.940;4.024;2023-03-14T01:02:46;10.90;99.90
52275;DHT22;38228;50.940;4.024;2023-03-14T01:05:12;10.80;99.90
52275;DHT22;38228;50.940;4.024;2023-03-14T01:07:37;10.90;99.90
52275;DHT22;38228;50.940;4.024;2023-03-14T01:10:03;10.90;99.90
52275;DHT22;38228;50.940;4.024;2023-03-14T01:12:29;10.90;99.90
52275;DHT22;38228;50.940;4.024;2023-03-14T01:14:55;10.80;99.90
52275;DHT22;38228;50.940;4.024;2023-03-14T01:17:20;10.90;99.90
52275;DHT22;38228;50.940;4.024;2023-03-14T01:19:46;10.80;99.90
52275;DHT22;38228;50.940;4.024;2023-03-14T01:22:12;10.90;99.90
52275;DHT22;38228;50.940;4.024;2023-03-14T01:24:37;11.00;99.90
52275;DHT22;38228;50.940;4.024;2023-03-14T01:27:03;11.00;99.90
52275;DHT22;38228;50.940;4.024;2023-03-14T01:29:29;10.90;99.90
52275;DHT22;38228;50.940;4.024;2023-03-14T01:31:54;10.90;99.90
52275;DHT22;38228;50.940;4.024;2023-03-14T01:34:20;11.00;99.90
52275;DHT22;38228;50.940;4.024;2023-03-14T01:36:45;11.10;99.90
52275;DHT22;38228;50.940;4.024;2023-03-14T01:39:11;11.10;99.90
52275;DHT22;38228;50.940;4.024;2023-03-14T01:41:38;10.90;99.90
52275;DHT22;38228;50.940;4.024;2023-03-14T01:44:04;11.00;99.90
52275;DHT22;38228;50.940;4.024;2023-03-14T01:49:24;11.10;99.90
52275;DHT22;38228;50.940;4.024;2023-03-14T01:51:57;11.10;99.90
52275;DHT22;38228;50.940;4.024;2023-03-14T01:54:25;11.00;99.90
52275;DHT22;38228;50.940;4.024;2023-03-14T01:56:54;11.00;99.90
52275;DHT22;38228;50.940;4.024;2023-03-14T01:59:20;11.10;99.90
52275;DHT22;38228;50.940;4.024;2023-03-14T02:01:46;11.00;99.90
52275;DHT22;38228;50.940;4.024;2023-03-14T02:04:13;11.00;99.90
52275;DHT22;38228;50.940;4.024;2023-03-14T02:06:59;11.00;99.90
52275;DHT22;38228;50.940;4.024;2023-03-14T02:09:26;11.00;99.90
52275;DHT22;38228;50.940;4.024;2023-03-14T02:11:51;11.10;99.90
52275;DHT22;38228;50.940;4.024;2023-03-14T02:14:21;11.00;99.90
52275;DHT22;38228;50.940;4.024;2023-03-14T02:16:47;11.00;99.90
52275;DHT22;38228;50.940;4.024;2023-03-14T02:19:13;11.00;99.90
52275;DHT22;38228;50.940;4.024;2023-03-14T02:24:19;11.00;99.90
52275;DHT22;38228;50.940;4.024;2023-03-14T02:29:28;11.10;99.90
52275;DHT22;38228;50.940;4.024;2023-03-14T02:31:54;11.00;99.90
52275;DHT22;38228;50.940;4.024;2023-03-14T02:34:20;11.00;99.90
52275;DHT22;38228;50.940;4.024;2023-03-14T02:36:45;10.90;99.90
52275;DHT22;38228;50.940;4.024;2023-03-14T02:39:14;10.70;99.90
52275;DHT22;38228;50.940;4.024;2023-03-14T02:41:40;10.80;99.90
52275;DHT22;38228;50.940;4.024;2023-03-14T02:44:07;10.70;99.90
52275;DHT22;38228;50.940;4.024;2023-03-14T02:46:33;10.80;99.90
52275;DHT22;38228;50.940;4.024;2023-03-14T02:49:02;10.90;99.90
52275;DHT22;38228;50.940;4.024;2023-03-14T02:51:28;10.70;99.90
52275;DHT22;38228;50.940;4.024;2023-03-14T02:53:54;10.70;99.90
52275;DHT22;38228;50.940;4.024;2023-03-14T02:56:20;10.70;99.90
52275;DHT22;38228;50.940;4.024;2023-03-14T02:58:45;10.60;99.90
52275;DHT22;38228;50.940;4.024;2023-03-14T03:01:11;10.60;99.90
52275;DHT22;38228;50.940;4.024;2023-03-14T03:03:36;10.70;99.90
52275;DHT22;38228;50.940;4.024;2023-03-14T03:06:02;10.70;99.90
52275;DHT22;38228;50.940;4.024;2023-03-14T03:08:28;10.80;99.90
52275;DHT22;38228;50.940;4.024;2023-03-14T03:10:53;10.80;99.90
52275;DHT22;38228;50.940;4.024;2023-03-14T03:13:19;10.70;99.90
52275;DHT22;38228;50.940;4.024;2023-03-14T03:15:45;10.60;99.90
52275;DHT22;38228;50.940;4.024;2023-03-14T03:18:10;10.70;99.90
52275;DHT22;38228;50.940;4.024;2023-03-14T03:20:36;10.80;99.90
52275;DHT22;38228;50.940;4.024;2023-03-14T03:23:02;10.80;99.90
52275;DHT22;38228;50.940;4.024;2023-03-14T03:25:27;10.90;99.90
52275;DHT22;38228;50.940;4.024;2023-03-14T03:27:53;10.80;99.90
52275;DHT22;38228;50.940;4.024;2023-03-14T03:30:19;10.90;99.90
52275;DHT22;38228;50.940;4.024;2023-03-14T03:32:44;11.00;99.90
52275;DHT22;38228;50.940;4.024;2023-03-14T03:35:10;10.90;99.90
52275;DHT22;38228;50.940;4.024;2023-03-14T03:37:35;10.90;99.90
52275;DHT22;38228;50.940;4.024;2023-03-14T03:40:01;10.70;99.90
52275;DHT22;38228;50.940;4.024;2023-03-14T03:42:30;10.90;99.90
52275;DHT22;38228;50.940;4.024;2023-03-14T03:44:55;10.90;99.90
52275;DHT22;38228;50.940;4.024;2023-03-14T03:47:21;11.00;99.90
52275;DHT22;38228;50.940;4.024;2023-03-14T03:49:46;11.00;99.90
52275;DHT22;38228;50.940;4.024;2023-03-14T03:52:12;10.90;99.90
52275;DHT22;38228;50.940;4.024;2023-03-14T03:54:37;10.90;99.90
52275;DHT22;38228;50.940;4.024;2023-03-14T03:57:03;11.00;99.90
52275;DHT22;38228;50.940;4.024;2023-03-14T03:59:28;11.00;99.90
52275;DHT22;38228;50.940;4.024;2023-03-14T04:01:54;11.00;99.90
52275;DHT22;38228;50.940;4.024;2023-03-14T04:04:19;11.00;99.90
52275;DHT22;38228;50.940;4.024;2023-03-14T04:06:45;11.00;99.90
52275;DHT22;38228;50.940;4.024;2023-03-14T04:09:11;10.90;99.90
52275;DHT22;38228;50.940;4.024;2023-03-14T04:11:36;10.90;99.90
52275;DHT22;38228;50.940;4.024;2023-03-14T04:14:02;10.80;99.90
52275;DHT22;38228;50.940;4.024;2023-03-14T04:16:28;10.60;99.90
52275;DHT22;38228;50.940;4.024;2023-03-14T04:18:54;10.60;99.90
52275;DHT22;38228;50.940;4.024;2023-03-14T04:21:20;10.70;99.90
52275;DHT22;38228;50.940;4.024;2023-03-14T04:23:45;10.70;99.90
52275;DHT22;38228;50.940;4.024;2023-03-14T04:26:11;10.70;99.90
52275;DHT22;38228;50.940;4.024;2023-03-14T04:28:36;10.80;99.90
52275;DHT22;38228;50.940;4.024;2023-03-14T04:33:56;10.80;99.90
52275;DHT22;38228;50.940;4.024;2023-03-14T04:36:22;10.90;99.90
52275;DHT22;38228;50.940;4.024;2023-03-14T04:38:47;10.80;99.90
52275;DHT22;38228;50.940;4.024;2023-03-14T04:41:13;10.80;99.90
52275;DHT22;38228;50.940;4.024;2023-03-14T04:43:38;10.80;99.90
52275;DHT22;38228;50.940;4.024;2023-03-14T04:46:04;10.80;99.90
52275;DHT22;38228;50.940;4.024;2023-03-14T04:48:30;10.90;99.90
52275;DHT22;38228;50.940;4.024;2023-03-14T04:50:55;10.90;99.90
52275;DHT22;38228;50.940;4.024;2023-03-14T04:53:21;10.80;99.90
52275;DHT22;38228;50.940;4.024;2023-03-14T04:55:50;10.80;99.90
52275;DHT22;38228;50.940;4.024;2023-03-14T04:58:16;10.80;99.90
52275;DHT22;38228;50.940;4.024;2023-03-14T05:00:42;10.80;99.90
52275;DHT22;38228;50.940;4.024;2023-03-14T05:03:07;10.90;99.90
52275;DHT22;38228;50.940;4.024;2023-03-14T05:05:33;10.90;99.90
52275;DHT22;38228;50.940;4.024;2023-03-14T05:07:58;11.00;99.90
52275;DHT22;38228;50.940;4.024;2023-03-14T05:10:24;10.90;99.90
52275;DHT22;38228;50.940;4.024;2023-03-14T05:12:50;11.00;99.90
52275;DHT22;38228;50.940;4.024;2023-03-14T05:15:16;11.00;99.90
52275;DHT22;38228;50.940;4.024;2023-03-14T05:17:42;11.00;99.90
52275;DHT22;38228;50.940;4.024;2023-03-14T05:20:08;11.10;99.90
52275;DHT22;38228;50.940;4.024;2023-03-14T05:22:39;11.00;99.90
52275;DHT22;38228;50.940;4.024;2023-03-14T05:25:06;10.90;99.90
52275;DHT22;38228;50.940;4.024;2023-03-14T05:27:32;11.00;99.90
52275;DHT22;38228;50.940;4.024;2023-03-14T05:29:57;10.90;99.90
52275;DHT22;38228;50.940;4.024;2023-03-14T05:32:23;10.80;99.90
52275;DHT22;38228;50.940;4.024;2023-03-14T05:34:48;10.90;99.90
52275;DHT22;38228;50.940;4.024;2023-03-14T05:37:14;10.80;99.90
52275;DHT22;38228;50.940;4.024;2023-03-14T05:39:39;10.90;99.90
52275;DHT22;38228;50.940;4.024;2023-03-14T05:42:05;10.90;99.90
52275;DHT22;38228;50.940;4.024;2023-03-14T05:44:31;10.80;99.90
52275;DHT22;38228;50.940;4.024;2023-03-14T05:46:56;10.70;99.90
52275;DHT22;38228;50.940;4.024;2023-03-14T05:49:22;10.60;99.90
52275;DHT22;38228;50.940;4.024;2023-03-14T05:51:47;10.60;99.90
52275;DHT22;38228;50.940;4.024;2023-03-14T05:54:13;10.60;99.90
52275;DHT22;38228;50.940;4.024;2023-03-14T05:56:38;10.70;99.90
52275;DHT22;38228;50.940;4.024;2023-03-14T05:59:04;10.80;99.90
52275;DHT22;38228;50.940;4.024;2023-03-14T06:01:30;10.70;99.90
52275;DHT22;38228;50.940;4.024;2023-03-14T06:03:55;10.70;99.90
52275;DHT22;38228;50.940;4.024;2023-03-14T06:06:21;10.70;99.90
52275;DHT22;38228;50.940;4.024;2023-03-14T06:08:46;10.60;99.90
52275;DHT22;38228;50.940;4.024;2023-03-14T06:11:12;10.50;99.90
52275;DHT22;38228;50.940;4.024;2023-03-14T06:13:38;10.50;99.90
52275;DHT22;38228;50.940;4.024;2023-03-14T06:16:04;10.60;99.90
52275;DHT22;38228;50.940;4.024;2023-03-14T06:18:29;10.10;99.90
52275;DHT22;38228;50.940;4.024;2023-03-14T06:20:55;9.50;99.90
52275;DHT22;38228;50.940;4.024;2023-03-14T06:23:21;8.90;99.90
52275;DHT22;38228;50.940;4.024;2023-03-14T06:25:47;8.60;99.90
52275;DHT22;38228;50.940;4.024;2023-03-14T06:28:13;8.40;99.90
52275;DHT22;38228;50.940;4.024;2023-03-14T06:30:38;8.30;99.90
52275;DHT22;38228;50.940;4.024;2023-03-14T06:33:04;8.10;99.90
52275;DHT22;38228;50.940;4.024;2023-03-14T06:35:29;8.00;99.90
52275;DHT22;38228;50.940;4.024;2023-03-14T06:37:55;7.90;99.90
52275;DHT22;38228;50.940;4.024;2023-03-14T06:40:21;7.70;99.90
52275;DHT22;38228;50.940;4.024;2023-03-14T06:42:46;7.60;99.90
52275;DHT22;38228;50.940;4.024;2023-03-14T06:45:12;7.50;99.90
52275;DHT22;38228;50.940;4.024;2023-03-14T06:47:38;7.40;99.90
52275;DHT22;38228;50.940;4.024;2023-03-14T06:50:05;7.40;99.90
52275;DHT22;38228;50.940;4.024;2023-03-14T06:52:30;7.30;99.90
52275;DHT22;38228;50.940;4.024;2023-03-14T06:54:56;7.30;99.90
52275;DHT22;38228;50.940;4.024;2023-03-14T06:57:22;7.30;99.90
52275;DHT22;38228;50.940;4.024;2023-03-14T06:59:47;7.20;99.90
52275;DHT22;38228;50.940;4.024;2023-03-14T07:02:13;7.30;99.90
52275;DHT22;38228;50.940;4.024;2023-03-14T07:04:38;7.30;99.90
52275;DHT22;38228;50.940;4.024;2023-03-14T07:07:04;7.30;99.90
52275;DHT22;38228;50.940;4.024;2023-03-14T07:09:31;7.40;99.90
52275;DHT22;38228;50.940;4.024;2023-03-14T07:11:56;7.30;99.90
52275;DHT22;38228;50.940;4.024;2023-03-14T07:14:22;7.30;99.90
52275;DHT22;38228;50.940;4.024;2023-03-14T07:16:47;7.30;99.90
52275;DHT22;38228;50.940;4.024;2023-03-14T07:19:13;7.20;99.90
52275;DHT22;38228;50.940;4.024;2023-03-14T07:21:38;7.20;99.90
52275;DHT22;38228;50.940;4.024;2023-03-14T07:24:04;7.20;99.90
52275;DHT22;38228;50.940;4.024;2023-03-14T07:26:30;7.20;99.90
52275;DHT22;38228;50.940;4.024;2023-03-14T07:28:55;7.30;99.90
52275;DHT22;38228;50.940;4.024;2023-03-14T07:31:21;7.30;99.90
52275;DHT22;38228;50.940;4.024;2023-03-14T07:33:47;7.40;99.90
52275;DHT22;38228;50.940;4.024;2023-03-14T07:36:12;7.30;99.90
52275;DHT22;38228;50.940;4.024;2023-03-14T07:38:38;7.30;99.90
52275;DHT22;38228;50.940;4.024;2023-03-14T07:41:04;7.30;99.90
52275;DHT22;38228;50.940;4.024;2023-03-14T07:43:31;7.30;99.90
52275;DHT22;38228;50.940;4.024;2023-03-14T07:45:56;7.40;99.90
52275;DHT22;38228;50.940;4.024;2023-03-14T07:48:22;7.40;99.90
52275;DHT22;38228;50.940;4.024;2023-03-14T07:50:50;7.50;99.90
52275;DHT22;38228;50.940;4.024;2023-03-14T07:53:17;7.60;99.90
52275;DHT22;38228;50.940;4.024;2023-03-14T07:55:42;7.70;99.90
52275;DHT22;38228;50.940;4.024;2023-03-14T07:58:08;7.70;99.90
52275;DHT22;38228;50.940;4.024;2023-03-14T08:00:33;7.60;99.90
52275;DHT22;38228;50.940;4.024;2023-03-14T08:02:59;7.50;99.90
52275;DHT22;38228;50.940;4.024;2023-03-14T08:05:24;7.30;99.90
52275;DHT22;38228;50.940;4.024;2023-03-14T08:07:50;7.20;99.90
52275;DHT22;38228;50.940;4.024;2023-03-14T08:10:15;7.00;99.90
52275;DHT22;38228;50.940;4.024;2023-03-14T08:12:50;6.90;99.90
52275;DHT22;38228;50.940;4.024;2023-03-14T08:15:15;6.80;99.90
52275;DHT22;38228;50.940;4.024;2023-03-14T08:17:41;6.70;99.90
52275;DHT22;38228;50.940;4.024;2023-03-14T08:20:07;6.60;99.90
52275;DHT22;38228;50.940;4.024;2023-03-14T08:22:33;6.60;99.90
52275;DHT22;38228;50.940;4.024;2023-03-14T08:24:59;6.60;99.90
52275;DHT22;38228;50.940;4.024;2023-03-14T08:27:25;6.60;99.90
52275;DHT22;38228;50.940;4.024;2023-03-14T08:29:50;6.60;99.90
52275;DHT22;38228;50.940;4.024;2023-03-14T08:32:16;6.50;99.90
52275;DHT22;38228;50.940;4.024;2023-03-14T08:34:41;6.60;99.90
52275;DHT22;38228;50.940;4.024;2023-03-14T08:37:07;6.60;99.90
52275;DHT22;38228;50.940;4.024;2023-03-14T08:39:32;6.60;99.90
52275;DHT22;38228;50.940;4.024;2023-03-14T08:41:58;6.70;99.90
52275;DHT22;38228;50.940;4.024;2023-03-14T08:44:24;6.60;99.90
52275;DHT22;38228;50.940;4.024;2023-03-14T08:46:49;6.60;99.90
52275;DHT22;38228;50.940;4.024;2023-03-14T08:49:15;6.60;99.90
52275;DHT22;38228;50.940;4.024;2023-03-14T08:51:40;6.70;99.90
52275;DHT22;38228;50.940;4.024;2023-03-14T08:54:06;6.70;99.90
52275;DHT22;38228;50.940;4.024;2023-03-14T08:56:31;6.70;99.90
52275;DHT22;38228;50.940;4.024;2023-03-14T08:58:57;6.60;99.90
52275;DHT22;38228;50.940;4.024;2023-03-14T09:01:22;6.60;99.90
52275;DHT22;38228;50.940;4.024;2023-03-14T09:03:50;6.60;99.90
52275;DHT22;38228;50.940;4.024;2023-03-14T09:06:16;6.60;99.90
52275;DHT22;38228;50.940;4.024;2023-03-14T09:08:44;6.60;99.90
52275;DHT22;38228;50.940;4.024;2023-03-14T09:11:11;6.50;99.90
52275;DHT22;38228;50.940;4.024;2023-03-14T09:13:36;6.50;99.90
52275;DHT22;38228;50.940;4.024;2023-03-14T09:16:04;6.50;99.90
52275;DHT22;38228;50.940;4.024;2023-03-14T09:18:30;6.60;99.90
52275;DHT22;38228;50.940;4.024;2023-03-14T09:20:55;6.60;99.90
52275;DHT22;38228;50.940;4.024;2023-03-14T09:23:21;6.60;99.90
52275;DHT22;38228;50.940;4.024;2023-03-14T09:25:47;6.60;99.90
52275;DHT22;38228;50.940;4.024;2023-03-14T09:28:12;6.60;99.90
52275;DHT22;38228;50.940;4.024;2023-03-14T09:30:38;6.70;99.90
52275;DHT22;38228;50.940;4.024;2023-03-14T09:33:04;6.60;99.90
52275;DHT22;38228;50.940;4.024;2023-03-14T09:35:29;6.70;99.90
52275;DHT22;38228;50.940;4.024;2023-03-14T09:37:55;6.70;99.90
52275;DHT22;38228;50.940;4.024;2023-03-14T09:40:20;6.70;99.90
52275;DHT22;38228;50.940;4.024;2023-03-14T09:42:52;6.70;99.90
52275;DHT22;38228;50.940;4.024;2023-03-14T09:45:25;6.80;99.90
52275;DHT22;38228;50.940;4.024;2023-03-14T09:47:51;6.90;99.90
52275;DHT22;38228;50.940;4.024;2023-03-14T09:50:17;6.90;99.90
52275;DHT22;38228;50.940;4.024;2023-03-14T09:52:45;6.90;99.90
52275;DHT22;38228;50.940;4.024;2023-03-14T09:57:37;6.80;99.90
52275;DHT22;38228;50.940;4.024;2023-03-14T10:00:05;6.80;99.90
52275;DHT22;38228;50.940;4.024;2023-03-14T10:02:39;6.80;99.90
52275;DHT22;38228;50.940;4.024;2023-03-14T10:05:13;6.70;99.90
52275;DHT22;38228;50.940;4.024;2023-03-14T10:07:39;6.50;99.90
52275;DHT22;38228;50.940;4.024;2023-03-14T10:10:08;6.50;99.90
52275;DHT22;38228;50.940;4.024;2023-03-14T10:12:36;6.50;99.90
52275;DHT22;38228;50.940;4.024;2023-03-14T10:15:09;6.50;99.90
52275;DHT22;38228;50.940;4.024;2023-03-14T10:17:39;6.50;99.90
52275;DHT22;38228;50.940;4.024;2023-03-14T10:20:05;6.30;99.90
52275;DHT22;38228;50.940;4.024;2023-03-14T10:22:31;6.30;99.90
52275;DHT22;38228;50.940;4.024;2023-03-14T10:25:01;6.10;99.90
52275;DHT22;38228;50.940;4.024;2023-03-14T10:27:28;6.00;99.90
52275;DHT22;38228;50.940;4.024;2023-03-14T10:29:55;5.90;99.90
52275;DHT22;38228;50.940;4.024;2023-03-14T10:32:21;5.90;99.90
52275;DHT22;38228;50.940;4.024;2023-03-14T10:35:03;6.00;99.90
52275;DHT22;38228;50.940;4.024;2023-03-14T10:37:29;6.10;99.90
52275;DHT22;38228;50.940;4.024;2023-03-14T10:39:55;6.20;99.90
52275;DHT22;38228;50.940;4.024;2023-03-14T10:42:27;6.20;99.90
52275;DHT22;38228;50.940;4.024;2023-03-14T10:44:58;6.30;99.90
52275;DHT22;38228;50.940;4.024;2023-03-14T10:47:25;6.20;99.90
52275;DHT22;38228;50.940;4.024;2023-03-14T10:49:52;6.00;99.90
52275;DHT22;38228;50.940;4.024;2023-03-14T10:52:29;6.00;99.90
52275;DHT22;38228;50.940;4.024;2023-03-14T10:54:57;5.90;99.90
52275;DHT22;38228;50.940;4.024;2023-03-14T10:57:23;5.90;99.90
52275;DHT22;38228;50.940;4.024;2023-03-14T10:59:48;5.90;99.90
52275;DHT22;38228;50.940;4.024;2023-03-14T11:04:59;6.00;99.90
52275;DHT22;38228;50.940;4.024;2023-03-14T11:07:32;6.00;99.90
52275;DHT22;38228;50.940;4.024;2023-03-14T11:15:43;5.80;99.90
52275;DHT22;38228;50.940;4.024;2023-03-14T11:20:45;5.60;99.90
52275;DHT22;38228;50.940;4.024;2023-03-14T11:23:14;5.50;99.90
52275;DHT22;38228;50.940;4.024;2023-03-14T11:28:28;5.40;99.90
52275;DHT22;38228;50.940;4.024;2023-03-14T11:31:03;5.40;99.90
52275;DHT22;38228;50.940;4.024;2023-03-14T11:33:35;5.50;99.90
52275;DHT22;38228;50.940;4.024;2023-03-14T11:36:08;5.50;99.90
52275;DHT22;38228;50.940;4.024;2023-03-14T11:38:37;5.60;99.90
52275;DHT22;38228;50.940;4.024;2023-03-14T11:41:03;5.80;99.90
52275;DHT22;38228;50.940;4.024;2023-03-14T11:43:30;6.00;99.90
52275;DHT22;38228;50.940;4.024;2023-03-14T11:46:01;6.10;99.90
52275;DHT22;38228;50.940;4.024;2023-03-14T11:48:32;6.10;99.90
52275;DHT22;38228;50.940;4.024;2023-03-14T11:51:01;6.10;99.90
52275;DHT22;38228;50.940;4.024;2023-03-14T11:53:42;6.00;99.90
52275;DHT22;38228;50.940;4.024;2023-03-14T11:56:18;6.10;99.90
52275;DHT22;38228;50.940;4.024;2023-03-14T11:58:51;6.10;99.90
52275;DHT22;38228;50.940;4.024;2023-03-14T12:01:19;6.10;99.90
52275;DHT22;38228;50.940;4.024;2023-03-14T12:03:58;6.20;99.90
52275;DHT22;38228;50.940;4.024;2023-03-14T12:09:24;6.20;99.90
52275;DHT22;38228;50.940;4.024;2023-03-14T12:11:50;6.10;99.90
52275;DHT22;38228;50.940;4.024;2023-03-14T12:14:22;6.20;99.90
52275;DHT22;38228;50.940;4.024;2023-03-14T12:16:49;6.30;99.90
52275;DHT22;38228;50.940;4.024;2023-03-14T12:22:12;6.20;99.90
52275;DHT22;38228;50.940;4.024;2023-03-14T12:24:34;6.00;99.90
52275;DHT22;38228;50.940;4.024;2023-03-14T12:27:00;6.00;99.90
52275;DHT22;38228;50.940;4.024;2023-03-14T12:29:27;6.20;99.90
52275;DHT22;38228;50.940;4.024;2023-03-14T12:34:40;6.40;99.90
52275;DHT22;38228;50.940;4.024;2023-03-14T12:45:01;6.70;99.90
52275;DHT22;38228;50.940;4.024;2023-03-14T12:50:11;6.70;99.90
52275;DHT22;38228;50.940;4.024;2023-03-14T12:52:48;6.80;99.90
52275;DHT22;38228;50.940;4.024;2023-03-14T12:55:29;6.90;99.90
52275;DHT22;38228;50.940;4.024;2023-03-14T12:58:12;6.90;99.90
52275;DHT22;38228;50.940;4.024;2023-03-14T13:00:40;6.90;99.90
52275;DHT22;38228;50.940;4.024;2023-03-14T13:03:17;7.00;99.90
52275;DHT22;38228;50.940;4.024;2023-03-14T13:05:53;7.00;99.90
52275;DHT22;38228;50.940;4.024;2023-03-14T13:08:33;7.00;99.90
52275;DHT22;38228;50.940;4.024;2023-03-14T13:10:58;7.00;99.90
52275;DHT22;38228;50.940;4.024;2023-03-14T13:13:25;7.20;99.90
52275;DHT22;38228;50.940;4.024;2023-03-14T13:15:55;7.20;99.90
52275;DHT22;38228;50.940;4.024;2023-03-14T13:18:32;7.30;99.90
52275;DHT22;38228;50.940;4.024;2023-03-14T13:21:01;7.40;99.90
52275;DHT22;38228;50.940;4.024;2023-03-14T13:23:28;7.10;99.90
52275;DHT22;38228;50.940;4.024;2023-03-14T13:25:57;7.00;99.90
52275;DHT22;38228;50.940;4.024;2023-03-14T13:28:24;6.90;99.90
52275;DHT22;38228;50.940;4.024;2023-03-14T13:30:54;6.70;99.90
52275;DHT22;38228;50.940;4.024;2023-03-14T13:33:21;6.50;99.90
52275;DHT22;38228;50.940;4.024;2023-03-14T13:35:47;6.40;99.90
52275;DHT22;38228;50.940;4.024;2023-03-14T13:38:18;6.40;99.90
52275;DHT22;38228;50.940;4.024;2023-03-14T13:40:44;6.40;99.90
52275;DHT22;38228;50.940;4.024;2023-03-14T13:43:12;6.50;99.90
52275;DHT22;38228;50.940;4.024;2023-03-14T13:48:25;6.70;99.90
52275;DHT22;38228;50.940;4.024;2023-03-14T13:50:53;6.80;99.90
52275;DHT22;38228;50.940;4.024;2023-03-14T13:53:19;6.90;99.90
52275;DHT22;38228;50.940;4.024;2023-03-14T13:55:45;6.90;99.90
52275;DHT22;38228;50.940;4.024;2023-03-14T13:58:21;7.00;99.90
52275;DHT22;38228;50.940;4.024;2023-03-14T14:00:54;7.20;99.90
52275;DHT22;38228;50.940;4.024;2023-03-14T14:03:20;7.30;99.90
52275;DHT22;38228;50.940;4.024;2023-03-14T14:05:46;7.30;99.90
52275;DHT22;38228;50.940;4.024;2023-03-14T14:08:12;7.30;99.90
52275;DHT22;38228;50.940;4.024;2023-03-14T14:10:38;7.20;99.90
52275;DHT22;38228;50.940;4.024;2023-03-14T14:13:03;7.10;99.90
52275;DHT22;38228;50.940;4.024;2023-03-14T14:15:40;7.20;99.90
52275;DHT22;38228;50.940;4.024;2023-03-14T14:18:07;7.20;99.90
52275;DHT22;38228;50.940;4.024;2023-03-14T14:20:38;7.20;99.90
52275;DHT22;38228;50.940;4.024;2023-03-14T14:23:06;7.00;99.90
52275;DHT22;38228;50.940;4.024;2023-03-14T14:25:34;6.90;99.90
52275;DHT22;38228;50.940;4.024;2023-03-14T14:28:13;6.80;99.90
52275;DHT22;38228;50.940;4.024;2023-03-14T14:30:39;6.60;99.90
52275;DHT22;38228;50.940;4.024;2023-03-14T14:33:12;6.30;99.90
52275;DHT22;38228;50.940;4.024;2023-03-14T14:35:41;6.00;99.90
52275;DHT22;38228;50.940;4.024;2023-03-14T14:38:12;5.80;99.90
52275;DHT22;38228;50.940;4.024;2023-03-14T14:40:43;5.90;99.90
52275;DHT22;38228;50.940;4.024;2023-03-14T14:43:10;5.90;99.90
52275;DHT22;38228;50.940;4.024;2023-03-14T14:45:40;6.10;99.90
52275;DHT22;38228;50.940;4.024;2023-03-14T14:48:09;6.10;99.90
52275;DHT22;38228;50.940;4.024;2023-03-14T14:50:39;6.40;99.90
52275;DHT22;38228;50.940;4.024;2023-03-14T14:55:49;6.70;99.90
52275;DHT22;38228;50.940;4.024;2023-03-14T14:58:20;6.80;99.90
52275;DHT22;38228;50.940;4.024;2023-03-14T15:00:56;6.90;99.90
52275;DHT22;38228;50.940;4.024;2023-03-14T15:03:22;7.00;99.90
52275;DHT22;38228;50.940;4.024;2023-03-14T15:05:51;7.10;99.90
52275;DHT22;38228;50.940;4.024;2023-03-14T15:08:16;7.00;99.90
52275;DHT22;38228;50.940;4.024;2023-03-14T15:10:42;7.10;99.90
52275;DHT22;38228;50.940;4.024;2023-03-14T15:13:07;7.10;99.90
52275;DHT22;38228;50.940;4.024;2023-03-14T15:15:33;7.30;99.90
52275;DHT22;38228;50.940;4.024;2023-03-14T15:17:59;7.50;99.90
52275;DHT22;38228;50.940;4.024;2023-03-14T15:20:25;7.50;99.90
52275;DHT22;38228;50.940;4.024;2023-03-14T15:22:51;7.40;99.90
52275;DHT22;38228;50.940;4.024;2023-03-14T15:25:16;7.30;99.90
52275;DHT22;38228;50.940;4.024;2023-03-14T15:27:42;7.20;99.90
52275;DHT22;38228;50.940;4.024;2023-03-14T15:30:12;7.20;99.90
52275;DHT22;38228;50.940;4.024;2023-03-14T15:32:37;7.20;99.90
52275;DHT22;38228;50.940;4.024;2023-03-14T15:35:03;7.20;99.90
52275;DHT22;38228;50.940;4.024;2023-03-14T15:37:29;7.30;99.90
52275;DHT22;38228;50.940;4.024;2023-03-14T15:39:56;7.50;99.90
52275;DHT22;38228;50.940;4.024;2023-03-14T15:42:23;7.50;99.90
52275;DHT22;38228;50.940;4.024;2023-03-14T15:44:49;7.30;99.90
52275;DHT22;38228;50.940;4.024;2023-03-14T15:47:14;7.20;99.90
52275;DHT22;38228;50.940;4.024;2023-03-14T15:49:40;7.10;99.90
52275;DHT22;38228;50.940;4.024;2023-03-14T15:52:06;7.00;99.90
52275;DHT22;38228;50.940;4.024;2023-03-14T15:54:33;7.00;99.90
52275;DHT22;38228;50.940;4.024;2023-03-14T15:56:59;6.80;99.90
52275;DHT22;38228;50.940;4.024;2023-03-14T15:59:25;6.80;99.90
52275;DHT22;38228;50.940;4.024;2023-03-14T16:01:50;7.00;99.90
52275;DHT22;38228;50.940;4.024;2023-03-14T16:04:16;7.10;99.90
52275;DHT22;38228;50.940;4.024;2023-03-14T16:06:42;7.00;99.90
52275;DHT22;38228;50.940;4.024;2023-03-14T16:09:12;7.10;99.90
52275;DHT22;38228;50.940;4.024;2023-03-14T16:11:37;7.20;99.90
52275;DHT22;38228;50.940;4.024;2023-03-14T16:14:03;7.20;99.90
52275;DHT22;38228;50.940;4.024;2023-03-14T16:16:29;7.30;99.90
52275;DHT22;38228;50.940;4.024;2023-03-14T16:18:54;7.30;99.90
52275;DHT22;38228;50.940;4.024;2023-03-14T16:21:20;7.10;99.90
52275;DHT22;38228;50.940;4.024;2023-03-14T16:23:46;7.20;99.90
52275;DHT22;38228;50.940;4.024;2023-03-14T16:26:16;7.20;99.90
52275;DHT22;38228;50.940;4.024;2023-03-14T16:28:42;7.10;99.90
52275;DHT22;38228;50.940;4.024;2023-03-14T16:31:09;7.20;99.90